createdAt,value
2022-11-17T00:03:55.953Z,2.00
2022-11-17T00:09:01.270Z,1.30
2022-11-17T00:14:19.082Z,1.27
2022-11-17T00:19:39.375Z,1.00
2022-11-17T00:24:45.020Z,1.83
2022-11-17T00:29:50.328Z,1.33
2022-11-17T00:34:58.251Z,1.53
2022-11-17T00:40:03.534Z,1.08
2022-11-17T00:45:10.080Z,1.13
2022-11-17T00:50:18.773Z,0.90
2022-11-17T00:55:24.181Z,1.15
2022-11-17T01:00:29.540Z,1.10
2022-11-17T01:05:37.936Z,0.90
2022-11-17T01:10:43.275Z,1.20
2022-11-17T01:15:48.677Z,0.90
2022-11-17T01:20:56.901Z,1.00
2022-11-17T01:26:09.345Z,0.70
2022-11-17T01:31:17.396Z,1.67
2022-11-17T01:36:51.667Z,1.00
2022-11-17T01:41:58.366Z,0.77
2022-11-17T01:47:04.391Z,1.00
2022-11-17T01:52:14.385Z,1.13
2022-11-17T01:57:27.336Z,0.90
2022-11-17T02:02:33.350Z,1.10
2022-11-17T02:07:45.057Z,0.87
2022-11-17T02:12:53.390Z,1.00
2022-11-17T02:18:00.091Z,1.23
2022-11-17T02:23:41.219Z,1.08
2022-11-17T02:28:55.551Z,1.05
2022-11-17T02:34:08.342Z,1.07
2022-11-17T02:39:18.831Z,0.90
2022-11-17T02:44:31.667Z,0.80
2022-11-17T02:49:39.836Z,0.80
2022-11-17T02:54:45.146Z,1.10
2022-11-17T02:59:53.167Z,0.90
2022-11-17T03:05:12.503Z,1.00
2022-11-17T03:10:22.414Z,1.03
2022-11-17T03:15:40.134Z,0.80
2022-11-17T03:20:52.880Z,1.00
2022-11-17T03:26:01.760Z,1.00
2022-11-17T03:31:10.714Z,1.42
2022-11-17T03:36:18.795Z,1.00
2022-11-17T03:41:25.560Z,1.00
2022-11-17T03:46:34.513Z,0.90
2022-11-17T03:51:40.170Z,1.27
2022-11-17T03:56:53.697Z,0.90
2022-11-17T04:02:02.029Z,0.87
2022-11-17T04:07:07.370Z,1.33
2022-11-17T04:12:25.166Z,1.20
2022-11-17T04:17:33.006Z,1.43
2022-11-17T04:22:38.241Z,0.88
2022-11-17T04:27:56.304Z,0.70
2022-11-17T04:33:04.678Z,0.55
2022-11-17T04:38:10.053Z,0.70
2022-11-17T04:43:15.393Z,0.73
2022-11-17T04:48:23.282Z,0.85
2022-11-17T04:53:28.586Z,0.80
2022-11-17T04:58:33.947Z,0.80
2022-11-17T05:03:46.140Z,0.70
2022-11-17T05:08:55.676Z,1.00
2022-11-17T05:14:01.834Z,0.80
2022-11-17T05:19:11.054Z,0.60
2022-11-17T05:24:17.077Z,0.88
2022-11-17T05:29:24.245Z,0.82
2022-11-17T05:34:32.429Z,0.90
2022-11-17T05:39:37.762Z,1.00
2022-11-17T05:44:43.049Z,0.97
2022-11-17T05:49:50.892Z,0.70
2022-11-17T05:54:56.179Z,0.80
2022-11-17T06:00:04.825Z,1.10
2022-11-17T06:05:23.995Z,1.20
2022-11-17T06:10:30.067Z,1.03
2022-11-17T06:15:36.990Z,1.10
2022-11-17T06:20:48.561Z,1.05
2022-11-17T06:25:55.644Z,1.13
2022-11-17T06:31:02.348Z,1.17
2022-11-17T06:36:12.551Z,1.00
2022-11-17T06:41:17.872Z,1.45
2022-11-17T06:46:23.167Z,1.30
2022-11-17T06:51:31.154Z,1.20
2022-11-17T06:56:36.664Z,0.90
2022-11-17T07:01:42.090Z,1.27
2022-11-17T07:06:50.635Z,1.27
2022-11-17T07:11:56.022Z,1.20
2022-11-17T07:17:01.572Z,1.23
2022-11-17T07:22:10.010Z,1.13
2022-11-17T07:27:15.563Z,1.40
2022-11-17T07:32:21.132Z,0.90
2022-11-17T07:37:32.173Z,1.10
2022-11-17T07:42:37.508Z,1.40
2022-11-17T07:47:44.223Z,1.48
2022-11-17T07:52:54.619Z,1.57
2022-11-17T07:58:00.839Z,1.50
2022-11-17T08:03:07.432Z,1.13
2022-11-17T08:08:15.954Z,1.10
2022-11-17T08:13:22.831Z,0.90
2022-11-17T08:18:28.354Z,0.43
2022-11-17T08:23:37.591Z,0.52
2022-11-17T08:28:42.972Z,0.85
2022-11-17T08:33:48.500Z,0.60
2022-11-17T08:38:57.034Z,0.60
2022-11-17T08:44:02.767Z,0.50
2022-11-17T08:49:08.210Z,0.68
2022-11-17T08:54:16.618Z,0.60
2022-11-17T08:59:21.933Z,0.60
2022-11-17T09:04:27.404Z,0.82
2022-11-17T09:09:36.230Z,1.00
2022-11-17T09:14:41.609Z,1.00
2022-11-17T09:19:46.972Z,0.75
2022-11-17T09:24:57.143Z,0.60
2022-11-17T09:30:02.462Z,0.68
2022-11-17T09:35:09.495Z,0.63
2022-11-17T09:40:21.278Z,0.67
2022-11-17T09:45:30.821Z,0.60
2022-11-17T09:50:39.576Z,0.80
2022-11-17T09:55:49.937Z,0.70
2022-11-17T10:00:56.014Z,0.60
2022-11-17T10:06:03.495Z,0.50
2022-11-17T10:11:26.858Z,0.50
2022-11-17T10:16:32.832Z,0.33
2022-11-17T10:21:39.899Z,0.40
2022-11-17T10:26:52.436Z,0.60
2022-11-17T10:32:00.037Z,0.47
2022-11-17T10:37:09.322Z,0.30
2022-11-17T10:42:27.888Z,0.40
2022-11-17T10:47:36.245Z,0.95
2022-11-17T10:52:41.897Z,0.68
2022-11-17T10:57:53.134Z,0.40
2022-11-17T11:03:17.567Z,0.50
2022-11-17T11:08:53.101Z,0.40
2022-11-17T11:14:04.708Z,0.47
2022-11-17T11:19:30.194Z,0.50
2022-11-17T11:24:46.885Z,0.80
2022-11-17T11:30:05.606Z,0.55
2022-11-17T11:35:47.678Z,0.40
2022-11-17T11:41:05.264Z,0.50
2022-11-17T11:46:18.999Z,0.80
2022-11-17T11:51:31.557Z,0.40
2022-11-17T11:56:39.146Z,0.40
2022-11-17T12:01:55.322Z,0.52
2022-11-17T12:07:07.628Z,0.53
2022-11-17T12:12:17.740Z,0.47
2022-11-17T12:17:26.398Z,0.50
2022-11-17T12:23:07.805Z,0.52
2022-11-17T12:28:35.803Z,0.60
2022-11-17T12:34:11.450Z,0.53
2022-11-17T12:39:46.810Z,0.40
2022-11-17T12:44:59.290Z,0.60
2022-11-17T12:50:26.858Z,0.38
2022-11-17T12:55:48.001Z,0.70
2022-11-17T13:01:07.617Z,0.77
2022-11-17T13:11:43.668Z,0.50
2022-11-17T13:16:53.406Z,0.53
2022-11-17T13:22:03.817Z,0.65
2022-11-17T13:27:23.038Z,0.70
2022-11-17T13:32:31.097Z,0.77
2022-11-17T13:37:36.567Z,0.57
2022-11-17T13:42:43.186Z,0.40
2022-11-17T13:47:53.884Z,0.77
2022-11-17T13:53:01.537Z,0.60
2022-11-17T13:58:10.315Z,0.40
2022-11-17T14:03:35.651Z,0.80
2022-11-17T14:08:44.473Z,0.50
2022-11-17T14:13:51.912Z,0.68
2022-11-17T14:19:32.014Z,0.40
2022-11-17T14:24:38.016Z,0.63
2022-11-17T14:29:43.337Z,0.60
2022-11-17T14:34:51.414Z,1.00
2022-11-17T14:39:56.900Z,0.80
2022-11-17T14:45:02.369Z,0.80
2022-11-17T14:50:14.652Z,1.90
2022-11-17T14:55:22.081Z,0.77
2022-11-17T15:00:27.453Z,0.60
2022-11-17T15:05:35.850Z,1.00
2022-11-17T15:10:45.853Z,0.55
2022-11-17T15:15:51.268Z,0.70
2022-11-17T15:21:05.817Z,0.40
2022-11-17T15:26:14.150Z,0.88
2022-11-17T15:31:21.350Z,0.80
2022-11-17T15:36:29.366Z,1.17
2022-11-17T15:41:38.069Z,0.90
2022-11-17T15:46:47.431Z,0.70
2022-11-17T15:51:56.089Z,1.00
2022-11-17T15:57:02.926Z,1.00
2022-11-17T16:02:11.443Z,1.50
2022-11-17T16:07:19.692Z,1.42
2022-11-17T16:12:25.046Z,1.33
2022-11-17T16:17:32.123Z,1.40
2022-11-17T16:22:43.090Z,0.90
2022-11-17T16:27:48.481Z,0.60
2022-11-17T16:32:54.106Z,0.90
2022-11-17T16:38:02.747Z,0.80
2022-11-17T16:43:08.473Z,0.90
2022-11-17T16:48:14.411Z,0.88
2022-11-17T16:53:22.384Z,0.70
2022-11-17T16:58:27.740Z,0.70
2022-11-17T17:03:33.989Z,1.10
2022-11-17T17:08:42.363Z,0.70
2022-11-17T17:13:47.719Z,1.08
2022-11-17T17:19:01.961Z,1.30
2022-11-17T17:24:11.660Z,1.20
2022-11-17T17:29:17.343Z,1.20
2022-11-17T17:34:24.752Z,1.67
2022-11-17T17:39:33.741Z,1.42
2022-11-17T17:44:39.116Z,1.73
2022-11-17T17:49:44.459Z,1.88
2022-11-17T17:54:52.577Z,2.67
2022-11-17T17:59:58.041Z,2.17
2022-11-17T18:05:03.902Z,2.15
2022-11-17T18:10:13.796Z,1.90
2022-11-17T18:15:19.205Z,2.43
2022-11-17T18:20:24.599Z,1.90
2022-11-17T18:25:35.554Z,1.60
2022-11-17T18:30:40.926Z,2.03
2022-11-17T18:35:46.578Z,3.95
2022-11-17T18:40:59.311Z,2.20
2022-11-17T18:46:06.881Z,2.72
2022-11-17T18:51:21.234Z,5.70
2022-11-17T18:56:31.853Z,5.75
2022-11-17T19:01:37.261Z,3.00
2022-11-17T19:06:44.886Z,5.53
2022-11-17T19:11:53.539Z,3.42
2022-11-17T19:17:00.129Z,1.70
2022-11-17T19:22:05.901Z,2.10
2022-11-17T19:27:14.295Z,2.25
2022-11-17T19:32:19.667Z,4.47
2022-11-17T19:37:24.996Z,2.97
2022-11-17T19:42:33.247Z,2.08
2022-11-17T19:47:39.227Z,2.17
2022-11-17T19:52:45.058Z,2.88
2022-11-17T19:57:53.043Z,1.83
2022-11-17T20:02:58.579Z,1.70
2022-11-17T20:08:04.185Z,2.38
2022-11-17T20:13:12.237Z,2.03
2022-11-17T20:18:17.730Z,1.70
2022-11-17T20:23:23.434Z,1.90
2022-11-17T20:28:34.814Z,1.90
2022-11-17T20:33:42.243Z,1.80
2022-11-17T20:38:52.027Z,1.63
2022-11-17T20:44:01.986Z,1.70
2022-11-17T20:49:07.535Z,1.67
2022-11-17T20:54:13.325Z,1.85
2022-11-17T20:59:21.983Z,1.95
2022-11-17T21:04:27.649Z,2.23
2022-11-17T21:09:33.037Z,1.90
2022-11-17T21:14:41.046Z,2.20
2022-11-17T21:19:46.901Z,2.55
2022-11-17T21:24:52.421Z,2.33
2022-11-17T21:30:00.407Z,2.13
2022-11-17T21:35:07.156Z,2.30
2022-11-17T21:40:14.679Z,2.50
2022-11-17T21:45:22.791Z,2.40
2022-11-17T21:50:28.278Z,2.60
2022-11-17T21:55:33.958Z,2.90
2022-11-17T22:00:42.166Z,2.28
2022-11-17T22:05:47.533Z,2.50
2022-11-17T22:10:52.952Z,2.50
2022-11-17T22:16:05.801Z,2.00
2022-11-17T22:21:11.919Z,2.40
2022-11-17T22:26:17.206Z,2.08
2022-11-17T22:31:25.849Z,2.00
2022-11-17T22:36:31.271Z,2.33
2022-11-17T22:41:36.635Z,1.40
2022-11-17T22:46:45.805Z,2.37
2022-11-17T22:52:03.679Z,2.00
2022-11-17T22:57:09.050Z,1.67
2022-11-17T23:02:16.998Z,1.90
2022-11-17T23:07:22.497Z,1.77
2022-11-17T23:12:27.921Z,1.80
2022-11-17T23:17:35.811Z,1.60
2022-11-17T23:22:41.391Z,1.50
2022-11-17T23:27:46.788Z,1.60
2022-11-17T23:32:55.982Z,1.60
2022-11-17T23:38:02.877Z,1.53
2022-11-17T23:43:09.530Z,1.40
2022-11-17T23:48:17.604Z,1.73
2022-11-17T23:53:22.948Z,1.88
2022-11-17T23:58:29.018Z,1.92
